createdAt,value
2022-08-09T00:02:29.524Z,2.40
2022-08-09T00:07:31.866Z,2.00
2022-08-09T00:12:47.186Z,1.73
2022-08-09T00:18:05.104Z,2.10
2022-08-09T00:23:55.055Z,1.90
2022-08-09T00:28:35.450Z,1.80
2022-08-09T00:33:50.796Z,1.88
2022-08-09T00:38:53.909Z,1.70
2022-08-09T00:44:19.578Z,2.00
2022-08-09T00:49:18.531Z,1.90
2022-08-09T00:54:35.305Z,2.08
2022-08-09T00:59:46.713Z,1.98
2022-08-09T01:05:21.797Z,2.10
2022-08-09T01:10:41.986Z,1.70
2022-08-09T01:15:52.216Z,2.13
2022-08-09T01:21:20.598Z,1.90
2022-08-09T01:26:59.232Z,2.03
2022-08-09T01:32:32.698Z,2.03
2022-08-09T01:38:05.631Z,1.90
2022-08-09T01:42:51.253Z,1.73
2022-08-09T01:47:55.870Z,2.22
2022-08-09T01:53:00.297Z,2.10
2022-08-09T01:58:06.295Z,1.98
2022-08-09T02:08:35.883Z,2.00
2022-08-09T02:13:43.446Z,2.03
2022-08-09T02:19:06.490Z,2.00
2022-08-09T02:24:26.033Z,2.10
2022-08-09T02:29:34.873Z,2.03
2022-08-09T02:34:41.760Z,2.10
2022-08-09T02:40:03.141Z,2.20
2022-08-09T02:45:09.888Z,1.73
2022-08-09T02:50:43.621Z,1.90
2022-08-09T02:55:58.569Z,1.88
2022-08-09T03:01:04.162Z,1.80
2022-08-09T03:06:08.478Z,2.17
2022-08-09T03:11:29.833Z,2.25
2022-08-09T03:16:45.167Z,1.80
2022-08-09T03:21:51.883Z,1.83
2022-08-09T03:26:54.744Z,1.92
2022-08-09T03:32:00.225Z,2.05
2022-08-09T03:37:54.182Z,2.25
2022-08-09T03:42:28.813Z,1.90
2022-08-09T03:47:31.175Z,2.15
2022-08-09T03:52:43.657Z,1.80
2022-08-09T04:03:11.708Z,2.00
2022-08-09T04:08:17.471Z,2.15
2022-08-09T04:13:23.631Z,1.85
2022-08-09T04:18:42.398Z,2.33
2022-08-09T04:23:53.941Z,1.80
2022-08-09T04:29:00.519Z,2.08
2022-08-09T04:34:04.626Z,2.20
2022-08-09T04:39:09.247Z,2.00
2022-08-09T04:44:14.531Z,2.00
2022-08-09T04:49:16.947Z,2.10
2022-08-09T04:54:24.549Z,2.05
2022-08-09T04:59:26.768Z,1.90
2022-08-09T05:04:32.428Z,2.28
2022-08-09T05:09:45.346Z,2.20
2022-08-09T05:14:51.737Z,1.98
2022-08-09T05:19:56.615Z,2.05
2022-08-09T05:25:01.013Z,2.15
2022-08-09T05:30:05.181Z,2.13
2022-08-09T05:35:09.682Z,2.38
2022-08-09T05:40:12.837Z,1.88
2022-08-09T05:45:15.469Z,2.10
2022-08-09T05:50:29.896Z,2.00
2022-08-09T05:55:38.396Z,2.10
2022-08-09T06:00:40.636Z,1.85
2022-08-09T06:05:57.054Z,2.03
2022-08-09T06:11:00.168Z,2.10
2022-08-09T06:16:04.728Z,2.22
2022-08-09T06:21:08.164Z,2.60
2022-08-09T06:26:12.828Z,2.83
2022-08-09T06:31:14.976Z,2.83
2022-08-09T06:36:17.880Z,2.58
2022-08-09T06:41:21.012Z,2.53
2022-08-09T06:46:39.578Z,2.60
2022-08-09T06:51:42.629Z,2.40
2022-08-09T06:56:46.382Z,2.33
2022-08-09T07:01:58.101Z,2.10
2022-08-09T07:07:05.617Z,2.10
2022-08-09T07:12:17.872Z,2.08
2022-08-09T07:17:21.485Z,3.90
2022-08-09T07:22:27.262Z,3.58
2022-08-09T07:27:42.697Z,2.58
2022-08-09T07:32:55.698Z,3.30
2022-08-09T07:37:59.358Z,2.58
2022-08-09T07:43:02.048Z,5.00
2022-08-09T07:48:05.160Z,4.35
2022-08-09T07:53:08.161Z,5.60
2022-08-09T07:58:13.331Z,4.95
2022-08-09T08:03:16.382Z,4.90
2022-08-09T08:09:00.564Z,4.00
2022-08-09T08:13:55.915Z,3.58
2022-08-09T08:19:03.249Z,3.28
2022-08-09T08:24:11.824Z,2.70
2022-08-09T08:29:20.434Z,2.30
2022-08-09T08:34:30.396Z,2.15
2022-08-09T08:39:39.883Z,2.20
2022-08-09T08:44:47.713Z,2.13
2022-08-09T08:49:50.680Z,1.77
2022-08-09T08:54:56.824Z,2.00
2022-08-09T08:59:59.163Z,1.63
2022-08-09T09:05:05.945Z,2.58
2022-08-09T09:10:12.398Z,2.10
2022-08-09T09:15:28.260Z,1.70
2022-08-09T09:20:35.530Z,1.90
2022-08-09T09:26:02.346Z,1.70
2022-08-09T09:31:17.550Z,1.92
2022-08-09T09:36:40.046Z,1.90
2022-08-09T09:41:54.269Z,1.63
2022-08-09T09:47:05.957Z,1.65
2022-08-09T09:52:33.306Z,1.38
2022-08-09T09:58:00.787Z,1.90
2022-08-09T10:02:54.224Z,1.23
2022-08-09T10:08:26.000Z,1.70
2022-08-09T10:13:43.172Z,1.75
2022-08-09T10:18:54.431Z,1.85
2022-08-09T10:24:00.575Z,1.80
2022-08-09T10:29:38.039Z,1.60
2022-08-09T10:34:33.950Z,1.70
2022-08-09T10:39:48.893Z,1.63
2022-08-09T10:45:04.285Z,1.50
2022-08-09T10:50:31.227Z,2.60
2022-08-09T10:55:58.438Z,2.13
2022-08-09T11:03:06.609Z,2.40
2022-08-09T11:06:26.087Z,2.65
2022-08-09T11:11:54.450Z,2.95
2022-08-09T11:16:57.287Z,2.55
2022-08-09T11:22:10.166Z,2.20
2022-08-09T11:28:03.858Z,2.50
2022-08-09T11:33:19.224Z,3.03
2022-08-09T11:38:32.531Z,2.50
2022-08-09T11:43:37.422Z,3.13
2022-08-09T11:48:49.000Z,3.20
2022-08-09T11:54:28.926Z,2.50
2022-08-09T11:59:35.861Z,3.03
2022-08-09T12:04:40.539Z,3.20
2022-08-09T12:09:50.744Z,2.80
2022-08-09T12:15:07.659Z,2.67
2022-08-09T12:20:16.283Z,2.95
2022-08-09T12:25:35.673Z,2.80
2022-08-09T12:30:40.468Z,2.67
2022-08-09T12:35:43.947Z,2.75
2022-08-09T12:40:48.459Z,3.47
2022-08-09T12:45:59.457Z,3.45
2022-08-09T12:51:04.074Z,3.00
2022-08-09T12:56:40.170Z,2.63
2022-08-09T13:01:34.549Z,2.65
2022-08-09T13:06:46.072Z,2.33
2022-08-09T13:11:51.685Z,2.40
2022-08-09T13:17:08.338Z,3.05
2022-08-09T13:22:36.327Z,2.33
2022-08-09T13:27:40.262Z,2.65
2022-08-09T13:32:55.604Z,3.28
2022-08-09T13:37:57.955Z,3.13
2022-08-09T13:43:03.648Z,2.38
2022-08-09T13:48:10.623Z,2.50
2022-08-09T13:53:13.275Z,2.65
2022-08-09T13:58:15.422Z,2.47
2022-08-09T14:04:01.038Z,2.67
2022-08-09T14:08:41.850Z,2.42
2022-08-09T14:14:24.965Z,2.58
2022-08-09T14:19:08.646Z,2.60
2022-08-09T14:24:22.463Z,2.28
2022-08-09T14:30:34.561Z,2.40
2022-08-09T14:34:56.897Z,2.35
2022-08-09T14:39:59.290Z,2.70
2022-08-09T14:46:39.965Z,2.08
2022-08-09T14:50:34.224Z,2.45
2022-08-09T14:55:36.818Z,2.45
2022-08-09T15:00:48.442Z,2.10
2022-08-09T15:05:56.697Z,2.10
2022-08-09T15:11:07.287Z,2.30
2022-08-09T15:16:10.074Z,2.45
2022-08-09T15:22:01.071Z,2.40
2022-08-09T15:26:35.639Z,2.58
2022-08-09T15:31:47.472Z,2.30
2022-08-09T15:36:50.070Z,1.88
2022-08-09T15:41:54.816Z,2.42
2022-08-09T15:46:57.010Z,2.20
2022-08-09T15:52:03.231Z,2.17
2022-08-09T15:57:08.634Z,2.40
2022-08-09T16:02:13.336Z,1.98
2022-08-09T16:07:15.985Z,1.88
2022-08-09T16:12:18.171Z,2.20
2022-08-09T16:17:22.088Z,1.80
2022-08-09T16:22:25.197Z,2.05
2022-08-09T16:27:30.203Z,1.52
2022-08-09T16:32:54.272Z,1.52
2022-08-09T16:37:59.380Z,2.22
2022-08-09T16:43:02.513Z,2.03
2022-08-09T16:48:43.399Z,1.92
2022-08-09T16:53:32.548Z,1.85
2022-08-09T16:58:39.801Z,2.45
2022-08-09T17:03:52.671Z,2.08
2022-08-09T17:09:01.771Z,1.70
2022-08-09T17:14:26.430Z,2.10
2022-08-09T17:19:46.655Z,2.20
2022-08-09T17:24:55.594Z,2.08
2022-08-09T17:29:58.027Z,2.10
2022-08-09T17:35:04.056Z,1.70
2022-08-09T17:40:17.954Z,2.30
2022-08-09T17:45:27.430Z,2.30
2022-08-09T17:50:56.077Z,2.08
2022-08-09T18:01:15.351Z,1.83
2022-08-09T18:06:31.670Z,1.88
2022-08-09T18:11:46.956Z,2.03
2022-08-09T18:16:59.144Z,1.63
2022-08-09T18:22:01.314Z,2.00
2022-08-09T18:27:03.830Z,1.98
2022-08-09T18:32:09.243Z,1.90
2022-08-09T18:37:49.042Z,2.53
2022-08-09T18:42:34.170Z,2.03
2022-08-09T18:47:38.776Z,1.93
2022-08-09T18:52:42.694Z,1.63
2022-08-09T18:57:45.554Z,1.70
2022-08-09T19:02:50.822Z,1.33
2022-08-09T19:13:23.107Z,1.48
2022-08-09T19:18:40.933Z,1.17
2022-08-09T19:24:32.636Z,1.45
2022-08-09T19:29:18.363Z,1.45
2022-08-09T19:34:24.540Z,1.55
2022-08-09T19:39:43.600Z,1.58
2022-08-09T19:44:51.521Z,1.55
2022-08-09T19:50:49.420Z,1.30
2022-08-09T19:55:17.085Z,1.48
2022-08-09T20:00:21.876Z,1.75
2022-08-09T20:05:25.079Z,1.83
2022-08-09T20:10:34.100Z,1.70
2022-08-09T20:16:33.460Z,1.48
2022-08-09T20:20:59.261Z,1.65
2022-08-09T20:26:04.324Z,1.40
2022-08-09T20:31:09.355Z,1.20
2022-08-09T20:36:15.950Z,1.35
2022-08-09T20:41:35.003Z,1.40
2022-08-09T20:46:42.985Z,1.40
2022-08-09T20:51:50.739Z,1.55
2022-08-09T20:56:53.486Z,1.50
2022-08-09T21:01:56.300Z,1.75
2022-08-09T21:06:58.765Z,1.20
2022-08-09T21:18:23.416Z,1.10
2022-08-09T21:22:37.963Z,1.10
2022-08-09T21:27:51.743Z,1.33
2022-08-09T21:32:55.263Z,1.23
2022-08-09T21:38:00.507Z,1.30
2022-08-09T21:43:06.240Z,0.90
2022-08-09T21:48:08.633Z,1.15
2022-08-09T21:53:15.621Z,1.00
2022-08-09T21:58:29.160Z,1.00
2022-08-09T22:03:33.397Z,1.20
2022-08-09T22:08:38.972Z,1.20
2022-08-09T22:13:46.452Z,1.35
2022-08-09T22:18:54.933Z,1.52
2022-08-09T22:23:59.689Z,1.65
2022-08-09T22:29:05.272Z,1.30
2022-08-09T22:34:14.396Z,1.20
2022-08-09T22:39:46.622Z,1.20
2022-08-09T22:44:45.049Z,1.40
2022-08-09T22:49:51.843Z,2.05
2022-08-09T22:54:54.526Z,1.30
2022-08-09T22:59:59.455Z,1.10
2022-08-09T23:05:01.826Z,1.00
2022-08-09T23:10:08.415Z,1.40
2022-08-09T23:15:11.522Z,1.38
2022-08-09T23:20:13.707Z,1.42
2022-08-09T23:25:15.840Z,1.00
2022-08-09T23:30:18.287Z,1.10
2022-08-09T23:35:20.542Z,1.10
2022-08-09T23:40:22.791Z,1.10
2022-08-09T23:45:38.283Z,1.10
2022-08-09T23:50:40.928Z,1.30
2022-08-09T23:55:49.877Z,1.10
